createdAt,value
2022-08-07T00:00:31.469Z,4.95
2022-08-07T00:02:58.068Z,3.78
2022-08-07T00:05:25.422Z,4.35
2022-08-07T00:07:58.510Z,3.33
2022-08-07T00:10:31.061Z,4.88
2022-08-07T00:13:09.626Z,3.42
2022-08-07T00:15:46.719Z,4.03
2022-08-07T00:18:24.556Z,4.32
2022-08-07T00:20:53.576Z,3.97
2022-08-07T00:23:21.359Z,4.45
2022-08-07T00:25:59.076Z,3.22
2022-08-07T00:28:34.088Z,5.25
2022-08-07T00:31:12.404Z,3.92
2022-08-07T00:33:40.735Z,3.40
2022-08-07T00:36:08.653Z,3.40
2022-08-07T00:38:37.070Z,3.88
2022-08-07T00:41:09.891Z,4.47
2022-08-07T00:44:00.854Z,4.05
2022-08-07T00:46:28.366Z,4.00
2022-08-07T00:48:54.994Z,4.45
2022-08-07T00:51:21.844Z,5.05
2022-08-07T00:53:50.697Z,3.58
2022-08-07T00:56:22.839Z,3.40
2022-08-07T00:58:50.003Z,4.22
2022-08-07T01:01:18.195Z,4.05
2022-08-07T01:03:55.449Z,5.00
2022-08-07T01:06:25.943Z,4.30
2022-08-07T01:08:53.868Z,3.95
2022-08-07T01:12:09.583Z,5.97
2022-08-07T01:14:09.719Z,3.75
2022-08-07T01:16:37.080Z,5.97
2022-08-07T01:19:10.865Z,4.80
2022-08-07T01:21:47.785Z,4.88
2022-08-07T01:24:18.736Z,5.68
2022-08-07T01:26:52.033Z,4.38
2022-08-07T01:29:20.012Z,4.85
2022-08-07T01:31:48.267Z,4.07
2022-08-07T01:34:15.680Z,4.13
2022-08-07T01:36:44.150Z,4.28
2022-08-07T01:39:11.419Z,5.90
2022-08-07T01:41:40.798Z,3.60
2022-08-07T01:44:26.062Z,4.90
2022-08-07T01:46:53.270Z,4.30
2022-08-07T01:49:22.200Z,3.25
2022-08-07T01:52:03.653Z,4.13
2022-08-07T01:54:36.960Z,3.65
2022-08-07T01:57:34.127Z,3.60
2022-08-07T02:00:18.057Z,4.05
2022-08-07T02:03:12.059Z,4.47
2022-08-07T02:05:58.542Z,3.58
2022-08-07T02:08:27.727Z,5.18
2022-08-07T02:10:58.090Z,3.85
2022-08-07T02:13:47.024Z,4.20
2022-08-07T02:16:14.828Z,4.47
2022-08-07T02:18:46.929Z,4.68
2022-08-07T02:21:16.101Z,3.65
2022-08-07T02:23:43.933Z,3.72
2022-08-07T02:26:32.412Z,4.55
2022-08-07T02:29:00.249Z,4.03
2022-08-07T02:31:28.826Z,4.28
2022-08-07T02:34:11.261Z,3.35
2022-08-07T02:36:45.116Z,4.57
2022-08-07T02:39:17.249Z,4.15
2022-08-07T02:42:02.086Z,3.65
2022-08-07T02:44:34.624Z,4.82
2022-08-07T02:47:02.796Z,4.85
2022-08-07T02:49:58.019Z,4.72
2022-08-07T02:52:30.922Z,3.90
2022-08-07T02:55:01.186Z,4.18
2022-08-07T02:57:34.226Z,4.33
2022-08-07T03:00:05.210Z,4.35
2022-08-07T03:02:41.979Z,3.55
2022-08-07T03:05:23.104Z,3.40
2022-08-07T03:08:07.531Z,4.90
2022-08-07T03:10:46.364Z,3.53
2022-08-07T03:13:15.666Z,4.10
2022-08-07T03:15:56.131Z,5.05
2022-08-07T03:18:34.199Z,3.40
2022-08-07T03:21:04.407Z,3.90
2022-08-07T03:23:33.712Z,4.10
2022-08-07T03:26:23.430Z,5.55
2022-08-07T03:28:50.346Z,4.18
2022-08-07T03:31:18.559Z,3.88
2022-08-07T03:33:48.574Z,3.88
2022-08-07T03:36:15.483Z,3.70
2022-08-07T03:38:43.133Z,3.65
2022-08-07T03:41:12.371Z,3.88
2022-08-07T03:43:44.096Z,3.25
2022-08-07T03:46:25.426Z,3.63
2022-08-07T03:49:03.037Z,3.75
2022-08-07T03:51:31.018Z,4.13
2022-08-07T03:54:36.255Z,4.30
2022-08-07T03:57:04.018Z,3.47
2022-08-07T03:59:34.288Z,3.60
2022-08-07T04:02:01.238Z,3.65
2022-08-07T04:04:28.201Z,3.70
2022-08-07T04:07:00.087Z,3.90
2022-08-07T04:09:44.786Z,4.28
2022-08-07T04:12:26.826Z,4.25
2022-08-07T04:14:55.027Z,3.20
2022-08-07T04:17:22.877Z,3.38
2022-08-07T04:20:11.592Z,3.22
2022-08-07T04:22:40.366Z,3.90
2022-08-07T04:25:21.524Z,3.03
2022-08-07T04:28:00.329Z,4.22
2022-08-07T04:30:44.025Z,3.85
2022-08-07T04:33:15.623Z,3.20
2022-08-07T04:35:50.603Z,3.28
2022-08-07T04:38:18.124Z,3.08
2022-08-07T04:40:52.930Z,3.42
2022-08-07T04:44:11.301Z,3.90
2022-08-07T04:46:26.044Z,3.05
2022-08-07T04:49:07.549Z,3.47
2022-08-07T04:52:00.589Z,4.28
2022-08-07T04:54:34.850Z,3.53
2022-08-07T04:58:10.969Z,4.35
2022-08-07T05:00:12.834Z,3.40
2022-08-07T05:03:02.970Z,4.93
2022-08-07T05:05:53.129Z,3.58
2022-08-07T05:08:59.023Z,4.18
2022-08-07T05:11:57.289Z,2.97
2022-08-07T05:14:55.526Z,3.20
2022-08-07T05:17:51.671Z,6.00
2022-08-07T05:20:09.593Z,4.18
2022-08-07T05:22:38.289Z,4.65
2022-08-07T05:25:08.617Z,3.45
2022-08-07T05:28:02.816Z,3.50
2022-08-07T05:30:32.367Z,3.22
2022-08-07T05:33:02.607Z,3.30
2022-08-07T05:35:33.518Z,3.40
2022-08-07T05:38:09.860Z,4.88
2022-08-07T05:40:37.927Z,6.43
2022-08-07T05:43:18.574Z,4.45
2022-08-07T05:45:48.113Z,4.05
2022-08-07T05:48:15.590Z,3.20
2022-08-07T05:50:43.514Z,4.03
2022-08-07T05:54:13.221Z,3.55
2022-08-07T05:56:03.004Z,2.70
2022-08-07T05:58:36.733Z,4.25
2022-08-07T06:01:05.944Z,2.80
2022-08-07T06:03:56.491Z,3.95
2022-08-07T06:06:23.363Z,4.32
2022-08-07T06:08:56.986Z,4.05
2022-08-07T06:11:25.290Z,4.95
2022-08-07T06:14:12.148Z,3.50
2022-08-07T06:16:40.102Z,3.20
2022-08-07T06:19:07.152Z,2.80
2022-08-07T06:22:14.842Z,4.10
2022-08-07T06:24:53.033Z,3.80
2022-08-07T06:27:07.859Z,3.50
2022-08-07T06:29:34.934Z,5.18
2022-08-07T06:32:05.725Z,3.78
2022-08-07T06:34:32.331Z,3.00
2022-08-07T06:36:59.858Z,5.15
2022-08-07T06:40:12.875Z,4.25
2022-08-07T06:42:35.014Z,4.00
2022-08-07T06:45:02.922Z,6.15
2022-08-07T06:47:48.315Z,7.30
2022-08-07T06:50:16.319Z,93.53
2022-08-07T06:52:52.968Z,61.40
2022-08-07T06:55:34.157Z,31.83
2022-08-07T06:58:11.407Z,17.25
2022-08-07T07:00:42.187Z,15.48
2022-08-07T07:03:13.684Z,18.70
2022-08-07T07:06:04.394Z,14.23
2022-08-07T07:08:29.792Z,14.57
2022-08-07T07:10:58.980Z,14.75
2022-08-07T07:13:40.646Z,13.10
2022-08-07T07:16:19.810Z,12.73
2022-08-07T07:18:52.153Z,11.68
2022-08-07T07:21:40.266Z,11.77
2022-08-07T07:24:17.367Z,17.27
2022-08-07T07:26:51.972Z,14.02
2022-08-07T07:29:40.354Z,15.88
2022-08-07T07:32:10.473Z,9.85
2022-08-07T07:34:39.545Z,14.05
2022-08-07T07:37:21.564Z,15.07
2022-08-07T07:39:58.235Z,11.48
2022-08-07T07:42:32.905Z,11.90
2022-08-07T07:45:04.430Z,10.38
2022-08-07T07:47:51.891Z,7.88
2022-08-07T07:50:36.178Z,10.60
2022-08-07T07:53:13.640Z,7.97
2022-08-07T07:55:54.887Z,13.55
2022-08-07T07:58:30.168Z,10.13
2022-08-07T08:00:58.331Z,5.53
2022-08-07T08:04:10.549Z,8.65
2022-08-07T08:06:13.086Z,7.95
2022-08-07T08:08:42.145Z,7.28
2022-08-07T08:11:16.477Z,8.73
2022-08-07T08:13:53.971Z,8.48
2022-08-07T08:16:26.563Z,9.10
2022-08-07T08:18:57.021Z,8.38
2022-08-07T08:21:55.815Z,6.75
2022-08-07T08:25:04.735Z,8.55
2022-08-07T08:27:40.936Z,8.30
2022-08-07T08:30:23.344Z,8.85
2022-08-07T08:32:53.873Z,7.40
2022-08-07T08:35:28.883Z,7.60
2022-08-07T08:38:07.070Z,8.50
2022-08-07T08:40:46.889Z,6.57
2022-08-07T08:43:20.819Z,7.85
2022-08-07T08:46:17.360Z,6.38
2022-08-07T08:48:58.261Z,6.18
2022-08-07T08:52:00.883Z,6.45
2022-08-07T08:54:38.770Z,6.18
2022-08-07T08:57:09.293Z,6.45
2022-08-07T08:59:48.263Z,6.65
2022-08-07T09:02:38.893Z,7.28
2022-08-07T09:05:14.712Z,5.80
2022-08-07T09:07:58.164Z,4.88
2022-08-07T09:10:54.542Z,6.05
2022-08-07T09:13:59.834Z,5.78
2022-08-07T09:16:45.711Z,5.22
2022-08-07T09:19:44.774Z,6.35
2022-08-07T09:24:30.715Z,6.40
2022-08-07T09:25:54.330Z,5.45
2022-08-07T09:30:01.264Z,4.82
2022-08-07T09:31:23.704Z,5.85
2022-08-07T09:34:08.601Z,5.57
2022-08-07T09:36:57.574Z,4.68
2022-08-07T09:39:55.523Z,4.38
2022-08-07T09:42:38.802Z,4.90
2022-08-07T09:47:55.666Z,5.07
2022-08-07T09:48:12.221Z,4.47
2022-08-07T09:51:03.315Z,4.47
2022-08-07T09:53:55.096Z,4.85
2022-08-07T09:56:37.697Z,4.77
2022-08-07T09:59:37.045Z,4.65
2022-08-07T10:02:16.212Z,3.83
2022-08-07T10:04:47.724Z,5.07
2022-08-07T10:07:57.074Z,5.32
2022-08-07T10:10:30.744Z,5.13
2022-08-07T10:13:55.453Z,4.80
2022-08-07T10:16:16.489Z,4.83
2022-08-07T10:19:11.691Z,5.03
2022-08-07T10:22:14.454Z,14.73
2022-08-07T10:24:46.196Z,17.10
2022-08-07T10:27:47.146Z,18.00
2022-08-07T10:30:27.749Z,14.63
2022-08-07T10:33:14.910Z,10.93
2022-08-07T10:35:56.877Z,10.68
2022-08-07T10:38:41.192Z,10.20
2022-08-07T10:41:47.273Z,10.60
2022-08-07T10:44:38.314Z,8.00
2022-08-07T10:47:15.879Z,8.95
2022-08-07T10:49:51.833Z,10.88
2022-08-07T10:52:21.459Z,10.45
2022-08-07T10:55:20.934Z,9.32
2022-08-07T10:58:40.360Z,9.10
2022-08-07T11:01:35.268Z,7.53
2022-08-07T11:04:32.262Z,9.05
2022-08-07T11:07:14.834Z,8.30
2022-08-07T11:10:09.923Z,8.52
2022-08-07T11:12:37.924Z,7.35
2022-08-07T11:15:14.458Z,6.43
2022-08-07T11:17:56.600Z,7.05
2022-08-07T11:20:29.965Z,7.15
2022-08-07T11:23:12.528Z,6.03
2022-08-07T11:26:49.952Z,7.05
2022-08-07T11:29:41.993Z,6.45
2022-08-07T11:34:58.682Z,6.35
2022-08-07T11:37:58.116Z,4.57
2022-08-07T11:40:39.573Z,5.68
2022-08-07T11:43:54.958Z,5.90
2022-08-07T11:46:40.451Z,5.95
2022-08-07T11:50:30.666Z,5.82
2022-08-07T11:53:02.590Z,4.72
2022-08-07T11:56:27.286Z,5.90
2022-08-07T12:00:10.171Z,6.90
2022-08-07T12:02:33.805Z,5.90
2022-08-07T12:05:28.498Z,4.78
2022-08-07T12:08:25.667Z,5.22
2022-08-07T12:11:20.402Z,5.60
2022-08-07T12:13:54.272Z,5.25
2022-08-07T12:16:36.787Z,6.32
2022-08-07T12:19:21.432Z,4.18
2022-08-07T12:22:38.871Z,5.20
2022-08-07T12:26:21.338Z,4.85
2022-08-07T12:28:16.592Z,4.15
2022-08-07T12:31:05.984Z,5.47
2022-08-07T12:34:01.068Z,5.07
2022-08-07T12:36:33.199Z,4.45
2022-08-07T12:39:03.502Z,5.07
2022-08-07T12:41:52.510Z,4.97
2022-08-07T12:44:19.865Z,4.30
2022-08-07T12:47:07.035Z,5.32
2022-08-07T12:49:48.421Z,3.75
2022-08-07T12:52:36.785Z,3.95
2022-08-07T12:55:17.718Z,4.03
2022-08-07T12:58:01.163Z,4.18
2022-08-07T13:01:13.482Z,3.33
2022-08-07T13:03:59.224Z,3.55
2022-08-07T13:07:01.080Z,3.53
2022-08-07T13:10:19.471Z,3.90
2022-08-07T13:13:07.512Z,4.10
2022-08-07T13:15:42.750Z,3.85
2022-08-07T13:18:09.375Z,5.55
2022-08-07T13:20:46.547Z,3.08
2022-08-07T13:24:02.118Z,3.38
2022-08-07T13:26:15.846Z,5.43
2022-08-07T13:28:59.504Z,3.75
2022-08-07T13:31:32.112Z,2.85
2022-08-07T13:34:35.472Z,3.28
2022-08-07T13:37:58.667Z,3.75
2022-08-07T13:40:34.911Z,3.95
2022-08-07T13:43:13.553Z,4.03
2022-08-07T13:46:12.376Z,3.25
2022-08-07T13:48:34.497Z,2.83
2022-08-07T13:51:27.398Z,5.20
2022-08-07T13:54:03.083Z,4.03
2022-08-07T13:56:35.755Z,4.03
2022-08-07T13:59:12.821Z,5.00
2022-08-07T14:02:04.512Z,3.75
2022-08-07T14:04:35.655Z,3.90
2022-08-07T14:07:09.745Z,3.65
2022-08-07T14:10:01.950Z,4.38
2022-08-07T14:12:36.025Z,3.38
2022-08-07T14:15:10.463Z,4.82
2022-08-07T14:18:15.594Z,4.03
2022-08-07T14:20:40.840Z,4.50
2022-08-07T14:23:59.216Z,3.83
2022-08-07T14:26:28.399Z,3.50
2022-08-07T14:29:06.086Z,3.58
2022-08-07T14:31:56.218Z,4.00
2022-08-07T14:34:29.689Z,4.43
2022-08-07T14:37:03.281Z,3.75
2022-08-07T14:40:17.752Z,4.70
2022-08-07T14:42:31.376Z,5.03
2022-08-07T14:45:21.898Z,6.00
2022-08-07T14:47:49.522Z,4.90
2022-08-07T14:50:23.462Z,3.75
2022-08-07T14:52:51.797Z,4.32
2022-08-07T14:55:20.093Z,3.88
2022-08-07T14:57:58.070Z,4.40
2022-08-07T15:00:30.527Z,4.35
2022-08-07T15:02:59.954Z,4.90
2022-08-07T15:05:30.383Z,3.47
2022-08-07T15:08:00.029Z,4.10
2022-08-07T15:10:30.084Z,3.85
2022-08-07T15:13:01.662Z,4.72
2022-08-07T15:15:42.113Z,4.43
2022-08-07T15:18:33.867Z,4.90
2022-08-07T15:21:08.293Z,3.53
2022-08-07T15:25:15.196Z,4.35
2022-08-07T15:26:51.705Z,5.18
2022-08-07T15:30:09.322Z,3.92
2022-08-07T15:34:58.231Z,5.03
2022-08-07T15:37:29.704Z,4.25
2022-08-07T15:40:34.466Z,4.47
2022-08-07T15:43:53.619Z,3.63
2022-08-07T15:46:38.400Z,4.88
2022-08-07T15:49:13.110Z,3.47
2022-08-07T15:54:26.527Z,4.45
2022-08-07T15:56:57.762Z,4.45
2022-08-07T15:59:39.543Z,3.97
2022-08-07T16:02:15.283Z,4.32
2022-08-07T16:04:43.982Z,5.22
2022-08-07T16:08:29.153Z,4.90
2022-08-07T16:10:14.839Z,5.65
2022-08-07T16:13:04.654Z,4.20
2022-08-07T16:16:48.167Z,4.40
2022-08-07T16:19:41.820Z,4.93
2022-08-07T16:22:54.641Z,4.45
2022-08-07T16:26:01.119Z,5.05
2022-08-07T16:29:18.800Z,5.90
2022-08-07T16:31:51.546Z,5.88
2022-08-07T16:34:48.217Z,5.85
2022-08-07T16:38:07.414Z,6.20
2022-08-07T16:40:56.805Z,7.00
2022-08-07T16:44:04.312Z,6.90
2022-08-07T16:47:14.417Z,7.38
2022-08-07T16:50:28.789Z,6.88
2022-08-07T16:53:20.781Z,8.70
2022-08-07T16:55:55.822Z,6.22
2022-08-07T17:01:34.926Z,6.20
2022-08-07T17:04:15.207Z,8.00
2022-08-07T17:07:03.447Z,6.72
2022-08-07T17:10:06.884Z,7.68
2022-08-07T17:12:39.869Z,8.45
2022-08-07T17:15:44.573Z,7.50
2022-08-07T17:18:41.789Z,7.32
2022-08-07T17:21:23.073Z,7.20
2022-08-07T17:24:01.882Z,7.72
2022-08-07T17:26:58.168Z,8.85
2022-08-07T17:30:14.011Z,8.00
2022-08-07T17:33:04.624Z,6.93
2022-08-07T17:36:01.044Z,6.78
2022-08-07T17:38:34.224Z,8.52
2022-08-07T17:42:01.943Z,7.68
2022-08-07T17:44:33.556Z,6.88
2022-08-07T17:47:16.877Z,7.35
2022-08-07T17:49:59.967Z,7.40
2022-08-07T17:52:50.894Z,7.68
2022-08-07T17:56:00.382Z,7.38
2022-08-07T17:58:30.028Z,7.30
2022-08-07T18:00:59.658Z,6.50
2022-08-07T18:04:04.141Z,7.75
2022-08-07T18:06:38.356Z,8.27
2022-08-07T18:09:06.596Z,8.02
2022-08-07T18:12:08.021Z,6.25
2022-08-07T18:14:46.167Z,6.75
2022-08-07T18:18:44.715Z,6.88
2022-08-07T18:21:09.769Z,7.20
2022-08-07T18:23:43.797Z,6.40
2022-08-07T18:26:16.230Z,6.78
2022-08-07T18:29:04.466Z,7.53
2022-08-07T18:32:16.109Z,7.63
2022-08-07T18:35:21.926Z,7.55
2022-08-07T18:38:56.752Z,8.20
2022-08-07T18:41:45.194Z,7.63
2022-08-07T18:44:18.495Z,7.80
2022-08-07T18:46:58.220Z,6.65
2022-08-07T18:50:32.460Z,7.70
2022-08-07T18:53:02.965Z,7.28
2022-08-07T18:55:56.058Z,6.00
2022-08-07T18:59:09.201Z,8.30
2022-08-07T19:02:18.994Z,7.70
2022-08-07T19:05:09.947Z,6.57
2022-08-07T19:07:58.881Z,7.60
2022-08-07T19:10:31.431Z,6.65
2022-08-07T19:13:51.105Z,7.88
2022-08-07T19:17:05.011Z,8.75
2022-08-07T19:19:53.226Z,6.07
2022-08-07T19:22:30.650Z,5.82
2022-08-07T19:24:58.617Z,8.65
2022-08-07T19:28:58.136Z,5.90
2022-08-07T19:31:00.066Z,8.27
2022-08-07T19:33:12.768Z,6.90
2022-08-07T19:35:40.425Z,7.90
2022-08-07T19:38:16.082Z,6.70
2022-08-07T19:40:50.004Z,6.40
2022-08-07T19:43:21.670Z,7.82
2022-08-07T19:46:10.496Z,8.23
2022-08-07T19:48:43.642Z,9.45
2022-08-07T19:51:19.388Z,6.47
2022-08-07T19:54:31.353Z,8.18
2022-08-07T19:57:51.156Z,7.38
2022-08-07T19:59:40.635Z,6.55
2022-08-07T20:02:15.483Z,6.05
2022-08-07T20:04:49.226Z,8.77
2022-08-07T20:07:23.649Z,8.25
2022-08-07T20:10:35.891Z,5.72
2022-08-07T20:12:51.603Z,7.82
2022-08-07T20:15:22.296Z,7.32
2022-08-07T20:18:01.498Z,6.40
2022-08-07T20:20:31.029Z,7.57
2022-08-07T20:23:01.590Z,7.07
2022-08-07T20:25:53.255Z,7.63
2022-08-07T20:28:20.733Z,6.50
2022-08-07T20:30:56.670Z,7.15
2022-08-07T20:33:36.924Z,8.13
2022-08-07T20:36:07.126Z,5.50
2022-08-07T20:38:34.331Z,6.93
2022-08-07T20:41:03.810Z,5.57
2022-08-07T20:43:33.092Z,6.53
2022-08-07T20:46:28.619Z,6.45
2022-08-07T20:49:02.427Z,6.50
2022-08-07T20:51:40.709Z,8.40
2022-08-07T20:54:29.551Z,5.93
2022-08-07T20:57:02.670Z,6.47
2022-08-07T21:00:04.967Z,6.03
2022-08-07T21:02:40.396Z,5.90
2022-08-07T21:05:16.356Z,5.93
2022-08-07T21:07:49.768Z,6.85
2022-08-07T21:10:31.506Z,5.47
2022-08-07T21:13:00.479Z,7.65
2022-08-07T21:15:58.290Z,7.05
2022-08-07T21:18:27.766Z,5.68
2022-08-07T21:20:56.833Z,5.15
2022-08-07T21:23:42.640Z,5.75
2022-08-07T21:26:49.159Z,6.95
2022-08-07T21:29:30.838Z,4.55
2022-08-07T21:32:43.848Z,5.28
2022-08-07T21:35:02.726Z,5.03
2022-08-07T21:38:08.218Z,4.00
2022-08-07T21:40:46.272Z,5.35
2022-08-07T21:43:55.788Z,5.20
2022-08-07T21:46:33.725Z,5.15
2022-08-07T21:49:14.553Z,5.38
2022-08-07T21:52:03.178Z,5.28
2022-08-07T21:54:48.505Z,4.40
2022-08-07T21:57:31.293Z,4.60
2022-08-07T22:00:22.925Z,5.50
2022-08-07T22:02:54.012Z,5.03
2022-08-07T22:05:44.451Z,5.72
2022-08-07T22:08:14.606Z,5.88
2022-08-07T22:10:49.765Z,4.45
2022-08-07T22:13:17.452Z,6.18
2022-08-07T22:16:42.301Z,4.05
2022-08-07T22:19:01.096Z,5.05
2022-08-07T22:22:04.732Z,4.05
2022-08-07T22:24:34.774Z,5.13
2022-08-07T22:28:07.476Z,4.25
2022-08-07T22:30:16.831Z,5.68
2022-08-07T22:33:09.102Z,3.67
2022-08-07T22:35:48.171Z,5.20
2022-08-07T22:38:31.735Z,5.25
2022-08-07T22:41:20.054Z,4.77
2022-08-07T22:43:51.562Z,4.05
2022-08-07T22:47:02.483Z,4.63
2022-08-07T22:49:39.635Z,4.18
2022-08-07T22:52:39.896Z,4.35
2022-08-07T22:55:14.824Z,4.38
2022-08-07T22:57:53.893Z,2.30
2022-08-07T23:01:06.284Z,5.00
2022-08-07T23:03:58.802Z,3.35
2022-08-07T23:10:05.005Z,4.97
2022-08-07T23:12:51.659Z,2.88
2022-08-07T23:16:06.185Z,3.92
2022-08-07T23:21:16.302Z,4.20
2022-08-07T23:24:16.700Z,3.70
2022-08-07T23:26:55.015Z,3.15
2022-08-07T23:29:43.720Z,3.65
2022-08-07T23:34:36.887Z,4.18
2022-08-07T23:36:08.622Z,4.25
2022-08-07T23:38:59.129Z,3.75
2022-08-07T23:41:47.482Z,3.13
2022-08-07T23:44:46.154Z,3.05
2022-08-07T23:47:42.478Z,3.53
2022-08-07T23:50:20.658Z,2.83
2022-08-07T23:53:15.494Z,2.67
2022-08-07T23:56:14.777Z,3.58
